Quick Links (Output Below):   Max & Min Temps   /   Climate Reports   /   Zone Forecasts
River Forecasts   /   Forestry Forecasts   /   Aviation Forecasts   /   Radars   /   Features

Terminal Aerodrome Forecast (Jonesboro)

Pick a Site:
Arkadelphia | El Dorado | Fayetteville | Fort Smith | Harrison | Highfill | Hot Springs | Jonesboro
Little Rock | Monticello | Mountain Home | Pine Bluff | Texarkana
 Forecast 

KJBR 250130Z 2502/2524 15010KT P6SM SCT015
     FM250300 26015G25KT P6SM SCT020 BKN050
      TEMPO 2504/2508 BKN020
     FM250900 30010KT P6SM SKC
     FM251900 22006KT P6SM SKC=


 Latest METARs (Observations) 
How to Decode METARs
03Z KJBR 250253Z AUTO 19004KT 10SM FEW019 SCT025 OVC034 18/17 A2972
         RMK AO2 SLP063 60009 T01830172 53004
         
02Z KJBR 250153Z AUTO 00000KT 10SM FEW020 SCT055 18/17 A2971 RMK AO2
         RAE0054 SLP058 T01830167
         
01Z KJBR 250053Z AUTO 17006KT 10SM -RA BKN009 BKN015 19/17 A2968 RMK
         AO2 LTG DSNT SE TSE15B21E36 CIG 006V011 SLP049 P0009
         T01890167
         
00Z KJBR 242353Z AUTO 24020G32KT 9SM VCTS -RA SCT050 OVC060 19/17
         A2971 RMK AO2 PK WND 23033/2343 LTG DSNT ALQDS TSB45RAB40
         PRESRR SLP059 P0000 60028 T01940167 10267 20194 55007
         
***** Today's Observations (Above) *****


23Z KJBR 242253Z AUTO 27003KT 10SM BKN065 BKN095 OVC110 19/17 A2968
         RMK AO2 LTG DSNT N AND S TSE22RAE53 SLP049 P0027
         T01940167
         
22Z KJBR 242153Z AUTO 22013KT 7SM -TSRA BKN060 24/14 A2973 RMK AO2
         WSHFT 2136 LTG DSNT ALQDS TSB35RAB53 PRESRR SLP065 P0001
         T02440139
         
21Z KJBR 242053Z AUTO 17010G21KT 10SM CLR 26/14 A2966 RMK AO2 PK WND
         19028/2025 PRESFR SLP043 T02610139 58062
         
20Z KJBR 241953Z AUTO 18011KT 10SM CLR 25/14 A2972 RMK AO2 SLP063
         T02500144
         
19Z KJBR 241853Z AUTO 21018G24KT 10SM CLR 26/13 A2981 RMK AO2 SLP094
         T02560133
         
18Z KJBR 241753Z AUTO 22017G25KT 10SM CLR 26/12 A2985 RMK AO2 SLP106
         T02560122 10256 20111 58002
         
***** Yesterday's Observations (Above) *****


Back to Main Page
http://www.srh.noaa.gov/lzk/qfcst.php

USA.gov is the U.S. government's official web portal to all federal, state and local government web resources and services.